This is the latest recevied weather packets stored in our database for station/object E22ZMG-1. If no packets are shown the sender has not sent any weather packets the latest 10 day(s).
| Time | Temp. | Humidity | Pressure | Rain* | Wind** | Luminosity | Snow |
|---|---|---|---|---|---|---|---|
| 1777393173 | 29.44° C | 52% | 976 hPa | - | - | 0 W/m² | - |
| 1777392548 | 29.44° C | 50% | 976 hPa | - | - | 0 W/m² | - |
| 1777391925 | 30.56° C | 48% | 976 hPa | - | - | 0 W/m² | - |
| 1777391298 | 31.11° C | 46% | 976 hPa | - | - | 0 W/m² | - |
| 1777390673 | 31.11° C | 46% | 976 hPa | - | - | 0 W/m² | - |
| 1777390048 | 31.11° C | 45% | 975 hPa | - | - | 0 W/m² | - |
| 1777389423 | 31.11° C | 45% | 975 hPa | - | - | 0 W/m² | - |
| 1777388798 | 31.11° C | 45% | 975 hPa | - | - | 0 W/m² | - |
| 1777388172 | 31.11° C | 46% | 975 hPa | - | - | 0 W/m² | - |
| 1777387547 | 31.11° C | 46% | 975 hPa | - | - | 0 W/m² | - |
| 1777386922 | 31.11° C | 45% | 975 hPa | - | - | 0 W/m² | - |
| 1777386296 | 32.22° C | 42% | 975 hPa | - | - | 0 W/m² | - |
| 1777385671 | 32.22° C | 43% | 974 hPa | - | - | 0 W/m² | - |
| 1777385046 | 32.22° C | 42% | 974 hPa | - | - | 0 W/m² | - |
| 1777384422 | 32.22° C | 42% | 974 hPa | - | - | 0 W/m² | - |
| 1777383796 | 33.33° C | 39% | 973 hPa | - | - | 0 W/m² | - |
| 1777383171 | 34.44° C | 38% | 973 hPa | - | - | 0 W/m² | - |
| 1777382545 | 35.56° C | 36% | 973 hPa | - | - | 0 W/m² | - |
| 1777381920 | 38.89° C | 31% | 972 hPa | - | - | 0 W/m² | - |
| 1777381295 | 38.33° C | 31% | 972 hPa | - | - | 0 W/m² | - |
| 1777380669 | 38.89° C | 31% | 971 hPa | - | - | 0 W/m² | - |
| 1777380044 | 38.89° C | 31% | 971 hPa | - | - | 0 W/m² | - |
| 1777379419 | 38.89° C | 31% | 971 hPa | - | - | 0 W/m² | - |
| 1777378792 | 39.44° C | 30% | 971 hPa | - | - | 0 W/m² | - |
| 1777378167 | 39.44° C | 30% | 971 hPa | - | - | 0 W/m² | - |
* Rain since midnight (hover to see other rain measurements)
** Current wind speed in m/s (hover to see current wind gust speed)